Time;durP1;ratioP1;P1;durP2;ratioP2;P2;SDS_P1;SDS_P2;PMS_P1;PMS_P2;Temp;Humidity;BMP_temperature;BMP_pressure;BME280_temperature;BME280_humidity;BME280_pressure;Samples;Min_cycle;Max_cycle;Signal;HPM_P1;HPM_P2
2022/12/14 00:00:45;;;;;;;35.78;19.50;;;;;;;2.08;90.13;97672.47;5011499;28;20037;-68
2022/12/14 00:03:12;;;;;;;31.13;19.00;;;;;;;2.08;90.19;97656.25;4979305;28;20069;-66
2022/12/14 00:05:37;;;;;;;31.42;18.77;;;;;;;2.08;89.21;97649.38;5000468;28;20461;-63
2022/12/14 00:08:03;;;;;;;33.22;19.50;;;;;;;2.17;89.36;97645.28;4980614;28;20042;-67
2022/12/14 00:10:30;;;;;;;31.92;18.65;;;;;;;2.07;89.84;97647.75;4997299;28;20504;-64
2022/12/14 00:12:56;;;;;;;31.15;19.80;;;;;;;2.01;90.10;97648.22;4966584;28;20042;-72
2022/12/14 00:15:22;;;;;;;31.08;19.63;;;;;;;2.05;89.92;97644.47;4992432;28;20061;-66
2022/12/14 00:17:47;;;;;;;31.67;20.30;;;;;;;2.15;89.69;97647.16;4996935;28;20062;-70
2022/12/14 00:20:12;;;;;;;35.17;20.13;;;;;;;2.08;89.71;97634.00;4984931;28;20696;-69
2022/12/14 00:22:38;;;;;;;31.48;19.45;;;;;;;1.57;89.71;97547.25;4965267;28;20066;-69
2022/12/14 00:25:04;;;;;;;32.05;18.88;;;;;;;1.91;89.98;97607.03;4966088;28;20035;-67
2022/12/14 00:27:29;;;;;;;27.83;18.83;;;;;;;1.95;90.36;97638.41;4985542;28;20042;-62
2022/12/14 00:29:55;;;;;;;29.45;18.83;;;;;;;1.87;91.45;97633.84;4980441;28;20116;-63
2022/12/14 00:32:20;;;;;;;29.60;19.05;;;;;;;1.98;90.84;97621.97;4984545;28;20042;-66
2022/12/14 00:34:46;;;;;;;30.90;20.20;;;;;;;2.00;90.81;97633.75;4980164;28;20549;-67
2022/12/14 00:37:11;;;;;;;35.92;20.52;;;;;;;1.98;91.06;97622.78;4982035;28;20412;-67
2022/12/14 00:39:36;;;;;;;29.30;20.08;;;;;;;1.79;92.63;97607.97;4957907;28;20599;-68
2022/12/14 00:42:02;;;;;;;33.58;20.70;;;;;;;1.80;92.59;97612.16;4991785;28;20038;-68
2022/12/14 00:44:27;;;;;;;29.17;18.73;;;;;;;1.84;92.97;97628.94;4990866;28;20049;-70
2022/12/14 00:46:53;;;;;;;32.63;20.30;;;;;;;1.58;93.26;97578.81;4979710;28;20616;-69
2022/12/14 00:49:18;;;;;;;32.28;19.92;;;;;;;1.85;93.59;97624.66;4978173;28;20549;-68
2022/12/14 00:51:44;;;;;;;32.55;19.98;;;;;;;1.76;94.46;97644.06;4984083;28;20458;-66
2022/12/14 00:54:09;;;;;;;35.00;20.27;;;;;;;1.21;94.50;97536.22;4994550;28;20061;-62
2022/12/14 00:56:35;;;;;;;33.20;19.67;;;;;;;1.80;94.60;97617.28;4992498;28;20034;-65
2022/12/14 00:59:00;;;;;;;34.63;19.70;;;;;;;1.82;94.92;97605.16;4977469;28;20653;-68
2022/12/14 01:01:26;;;;;;;36.38;20.20;;;;;;;1.86;94.95;97611.72;4976907;28;20040;-63
2022/12/14 01:04:15;;;;;;;31.90;19.20;;;;;;;1.82;94.80;97615.41;5001891;28;20548;-65
2022/12/14 01:06:36;;;;;;;32.45;20.33;;;;;;;1.71;95.34;97594.91;4981315;28;21466;-65
2022/12/14 01:09:02;;;;;;;36.78;19.40;;;;;;;1.73;95.74;97603.28;4996532;28;20045;-66
2022/12/14 01:11:28;;;;;;;37.33;19.50;;;;;;;1.86;95.29;97590.38;4982450;28;20030;-65
2022/12/14 01:13:54;;;;;;;34.38;20.73;;;;;;;1.88;95.38;97607.28;4994828;28;20729;-70
2022/12/14 01:16:20;;;;;;;36.53;20.38;;;;;;;1.89;95.15;97597.84;4957115;28;20117;-67
2022/12/14 01:18:46;;;;;;;33.97;20.05;;;;;;;1.83;94.21;97570.13;4987374;28;20115;-65
2022/12/14 01:21:11;;;;;;;35.05;20.38;;;;;;;2.08;94.06;97610.09;4962970;28;20062;-63
2022/12/14 01:23:37;;;;;;;35.60;21.73;;;;;;;1.67;94.30;97563.56;4980473;28;20053;-62
2022/12/14 01:26:03;;;;;;;36.78;21.63;;;;;;;2.08;94.05;97618.63;4974216;28;20026;-65
2022/12/14 01:28:28;;;;;;;31.95;19.67;;;;;;;1.97;94.33;97589.56;4992528;28;20030;-64
2022/12/14 01:30:54;;;;;;;38.42;22.83;;;;;;;2.05;94.44;97608.59;4980436;28;20033;-63
2022/12/14 01:33:19;;;;;;;35.53;20.83;;;;;;;1.76;94.64;97574.06;4959277;28;20037;-62
2022/12/14 01:35:44;;;;;;;32.13;19.58;;;;;;;1.81;93.81;97582.25;4977863;28;20129;-62
2022/12/14 01:38:10;;;;;;;33.88;19.80;;;;;;;2.03;93.54;97610.44;4973168;28;20066;-66
2022/12/14 01:40:35;;;;;;;34.22;20.52;;;;;;;1.73;94.16;97559.72;4978313;28;20053;-68
2022/12/14 01:43:01;;;;;;;34.75;21.55;;;;;;;2.04;95.08;97608.69;4977473;28;20038;-64
2022/12/14 01:45:26;;;;;;;34.85;20.42;;;;;;;2.02;94.78;97611.38;4994319;28;20182;-63
2022/12/14 01:47:57;;;;;;;40.22;23.35;;;;;;;2.15;93.96;97602.75;4977322;28;20035;-68
2022/12/14 01:50:28;;;;;;;43.70;22.50;;;;;;;2.17;94.17;97600.88;4983249;28;20045;-66
2022/12/14 01:52:57;;;;;;;37.03;20.33;;;;;;;1.92;95.11;97595.06;4976520;28;20038;-65
2022/12/14 01:55:23;;;;;;;32.10;20.23;;;;;;;1.97;94.27;97597.25;4949974;28;20154;-65
2022/12/14 01:58:03;;;;;;;30.98;19.13;;;;;;;1.96;95.19;97596.47;4980689;28;20117;-67
2022/12/14 02:00:29;;;;;;;36.38;19.83;;;;;;;2.09;94.83;97586.91;4979014;28;20438;-70
2022/12/14 02:03:05;;;;;;;34.35;20.15;;;;;;;1.99;95.34;97605.66;4980703;28;20109;-65
2022/12/14 02:05:33;;;;;;;28.15;19.15;;;;;;;1.69;95.57;97577.06;4980333;28;20045;-64
2022/12/14 02:07:59;;;;;;;28.55;19.40;;;;;;;1.96;94.20;97588.75;4997958;28;20034;-62
2022/12/14 02:10:27;;;;;;;30.65;18.98;;;;;;;1.89;95.19;97590.16;4983213;28;20085;-65
2022/12/14 02:13:17;;;;;;;31.67;19.27;;;;;;;1.88;95.38;97585.94;4976406;28;20027;-66
2022/12/14 02:15:43;;;;;;;31.25;19.48;;;;;;;1.67;96.53;97580.69;4990834;28;20030;-66
2022/12/14 02:18:13;;;;;;;33.25;19.52;;;;;;;1.75;96.47;97583.47;4983782;28;20666;-65
2022/12/14 02:21:06;;;;;;;31.75;19.38;;;;;;;1.77;96.26;97586.78;4995443;28;20489;-65
2022/12/14 02:23:52;;;;;;;31.23;19.73;;;;;;;1.82;96.38;97573.59;4996197;28;20041;-61
2022/12/14 02:26:54;;;;;;;33.25;19.58;;;;;;;1.90;95.83;97573.84;4980341;28;20104;-68
2022/12/14 02:29:25;;;;;;;30.92;18.58;;;;;;;2.04;95.12;97575.34;4995733;28;20366;-62
2022/12/14 02:31:57;;;;;;;33.80;20.05;;;;;;;2.06;95.21;97571.75;4974185;28;20041;-63
2022/12/14 02:34:44;;;;;;;32.83;19.98;;;;;;;1.79;95.35;97520.84;4971488;28;20041;-65
2022/12/14 02:37:17;;;;;;;33.42;19.77;;;;;;;2.05;96.34;97565.00;4974419;28;20030;-67
2022/12/14 02:39:42;;;;;;;34.00;21.13;;;;;;;1.82;95.76;97512.88;4962406;28;20099;-67
2022/12/14 02:42:12;;;;;;;37.10;21.65;;;;;;;2.04;95.49;97545.41;4977845;28;20066;-69
2022/12/14 02:44:37;;;;;;;;;;;;;;;1.81;96.56;97536.91;4978804;28;20137;-64
2022/12/14 02:47:15;;;;;;;32.53;18.45;;;;;;;1.56;96.53;97502.06;4996909;28;19917;-67
2022/12/14 02:50:02;;;;;;;32.47;18.92;;;;;;;1.83;96.08;97516.28;4980817;28;20092;-64
2022/12/14 02:52:36;;;;;;;32.40;19.77;;;;;;;1.88;96.16;97496.22;4978588;28;20449;-63
2022/12/14 02:55:41;;;;;;;33.45;19.88;;;;;;;2.00;96.12;97499.59;4972043;28;20030;-67
2022/12/14 02:58:16;;;;;;;29.92;18.67;;;;;;;1.94;95.73;97497.53;4975111;28;20061;-63
2022/12/14 03:00:41;;;;;;;32.40;19.73;;;;;;;1.68;96.07;97485.75;4979908;28;20034;-66
2022/12/14 03:03:07;;;;;;;33.70;20.08;;;;;;;1.77;96.77;97493.66;4978881;28;20039;-63
2022/12/14 03:05:33;;;;;;;34.50;19.85;;;;;;;1.83;97.00;97488.09;4980219;28;20040;-63
2022/12/14 03:08:05;;;;;;;32.72;19.83;;;;;;;1.95;96.34;97492.25;4971023;28;20042;-66
2022/12/14 03:10:42;;;;;;;34.28;20.48;;;;;;;1.90;96.21;97474.69;4992468;28;20117;-64
2022/12/14 03:13:16;;;;;;;32.67;19.17;;;;;;;1.30;96.61;97384.44;4974579;28;20166;-68
2022/12/14 03:15:45;;;;;;;34.30;20.00;;;;;;;1.87;96.70;97467.22;4983691;28;20045;-65
2022/12/14 03:18:13;;;;;;;35.30;20.27;;;;;;;1.86;96.56;97478.41;4992824;28;20049;-64
2022/12/14 03:20:38;;;;;;;34.95;20.30;;;;;;;1.88;96.14;97476.53;4961324;28;20041;-66
2022/12/14 03:23:08;;;;;;;35.65;21.17;;;;;;;1.72;96.59;97469.22;4992640;28;20398;-64
2022/12/14 03:25:41;;;;;;;37.88;22.58;;;;;;;1.78;96.87;97478.19;4979925;28;20023;-67
2022/12/14 03:28:15;;;;;;;40.13;22.55;;;;;;;1.40;97.47;97405.03;5011219;28;20038;-67
2022/12/14 03:30:42;;;;;;;40.63;22.75;;;;;;;1.69;97.83;97459.19;4981986;28;20031;-62
2022/12/14 03:33:15;;;;;;;48.92;26.02;;;;;;;1.78;97.47;97459.44;4978943;28;20124;-65
2022/12/14 03:35:58;;;;;;;38.00;22.10;;;;;;;1.83;96.64;97454.78;4979497;28;20505;-64
2022/12/14 03:38:35;;;;;;;36.15;19.67;;;;;;;1.82;96.66;97442.88;4977935;28;20034;-64
2022/12/14 03:41:25;;;;;;;30.42;18.70;;;;;;;1.87;97.00;97443.34;4975649;28;20069;-63
2022/12/14 03:43:51;;;;;;;33.72;20.10;;;;;;;1.47;96.87;97390.03;4981466;28;20378;-65
2022/12/14 03:46:46;;;;;;;40.13;21.45;;;;;;;1.79;97.59;97449.06;5015085;28;20100;-68
2022/12/14 03:49:15;;;;;;;33.08;20.08;;;;;;;1.51;97.54;97440.09;4983918;28;20045;-65
2022/12/14 03:51:55;;;;;;;28.45;18.13;;;;;;;1.44;98.84;97438.91;4985942;28;20049;-72
2022/12/14 03:54:29;;;;;;;29.35;18.58;;;;;;;1.47;99.01;97438.69;4983194;28;20053;-65
2022/12/14 03:57:05;;;;;;;27.23;17.15;;;;;;;1.41;98.66;97439.97;4976712;28;20026;-67
2022/12/14 03:59:48;;;;;;;28.38;17.90;;;;;;;1.52;98.13;97431.47;5016093;28;20030;-64
2022/12/14 04:02:18;;;;;;;28.80;18.60;;;;;;;1.41;97.63;97422.06;5000269;28;20157;-66
2022/12/14 04:05:01;;;;;;;28.85;18.65;;;;;;;1.29;98.58;97426.34;4984378;28;20038;-65
2022/12/14 04:07:44;;;;;;;27.95;17.73;;;;;;;1.27;98.66;97441.00;4981472;28;20053;-65
2022/12/14 04:21:54;;;;;;;29.10;17.50;;;;;;;1.34;98.05;97429.38;5011344;28;20100;-68
2022/12/14 04:28:03;;;;;;;33.15;19.13;;;;;;;1.29;98.27;97420.41;4950560;28;20039;-63
2022/12/14 04:30:32;;;;;;;31.33;18.15;;;;;;;1.10;97.96;97392.81;4950186;28;20061;-72
2022/12/14 04:33:45;;;;;;;31.13;18.50;;;;;;;1.10;97.88;97385.13;4973603;28;20046;-67
2022/12/14 04:35:47;;;;;;;43.55;23.23;;;;;;;1.12;97.73;97386.66;5006757;28;20462;-62
2022/12/14 04:38:16;;;;;;;39.00;21.45;;;;;;;1.09;97.69;97391.97;4984355;28;20454;-68
2022/12/14 04:40:45;;;;;;;42.60;21.92;;;;;;;1.10;98.03;97401.31;4964188;28;20026;-63
2022/12/14 04:43:14;;;;;;;38.30;20.05;;;;;;;1.09;98.96;97396.28;5003091;28;20049;-65
2022/12/14 04:45:44;;;;;;;35.10;21.25;;;;;;;0.99;99.09;97385.13;4983832;28;20030;-65
2022/12/14 04:48:26;;;;;;;;;;;;;;;0.92;99.45;97382.22;4980812;28;20482;-66
2022/12/14 04:51:01;;;;;;;32.88;17.95;;;;;;;0.99;99.95;97391.06;4980080;28;20016;-64
2022/12/14 04:53:28;;;;;;;37.60;19.83;;;;;;;0.79;99.04;97350.78;4985696;28;20053;-63
2022/12/14 04:56:03;;;;;;;36.15;19.85;;;;;;;0.98;98.91;97388.59;4973345;28;20441;-68
2022/12/14 04:58:29;;;;;;;41.42;21.98;;;;;;;0.79;100.00;97374.63;4982612;28;20065;-65
2022/12/14 05:01:07;;;;;;;46.90;22.75;;;;;;;0.91;100.00;97386.53;4980161;28;20110;-63
2022/12/14 05:03:35;;;;;;;46.53;23.63;;;;;;;0.80;100.00;97378.78;4983772;28;20096;-67
2022/12/14 05:06:04;;;;;;;50.80;24.85;;;;;;;0.80;100.00;97381.34;4976970;28;20070;-64
2022/12/14 05:08:59;;;;;;;46.80;23.35;;;;;;;0.85;99.94;97371.59;4979015;28;20030;-63
2022/12/14 05:11:29;;;;;;;43.60;22.00;;;;;;;0.82;100.00;97386.38;4997499;28;20038;-66
2022/12/14 05:13:54;;;;;;;45.28;22.45;;;;;;;0.77;100.00;97381.59;4996788;28;20050;-68
2022/12/14 05:16:22;;;;;;;49.28;24.95;;;;;;;0.77;100.00;97368.81;5016878;28;21174;-64
2022/12/14 05:18:47;;;;;;;50.05;25.27;;;;;;;0.81;100.00;97377.06;4984315;28;20042;-62
2022/12/14 05:24:00;;;;;;;57.05;27.02;;;;;;;0.88;100.00;97370.56;4998750;28;20065;-68
2022/12/14 05:26:25;;;;;;;53.65;25.05;;;;;;;0.86;100.00;97364.72;4982672;28;20034;-64
2022/12/14 05:28:51;;;;;;;49.50;24.58;;;;;;;0.92;100.00;97370.22;4983024;28;20553;-65
2022/12/14 05:31:16;;;;;;;65.80;30.20;;;;;;;0.89;100.00;97365.31;4995745;28;20141;-61
2022/12/14 05:33:42;;;;;;;45.03;23.33;;;;;;;0.71;100.00;97361.56;4998168;28;20026;-67
2022/12/14 05:36:08;;;;;;;30.23;17.95;;;;;;;0.68;100.00;97369.50;4961742;28;20065;-67
2022/12/14 05:38:34;;;;;;;27.63;17.75;;;;;;;0.75;100.00;97358.69;4995790;28;20030;-65
2022/12/14 05:41:00;;;;;;;27.60;17.13;;;;;;;0.77;100.00;97361.13;4999073;28;20038;-64
2022/12/14 05:43:25;;;;;;;23.23;15.00;;;;;;;0.72;100.00;97358.09;4982847;28;20038;-68
2022/12/14 05:46:01;;;;;;;26.23;14.15;;;;;;;0.64;99.96;97356.09;4963370;28;20052;-62
2022/12/14 05:48:27;;;;;;;21.17;13.68;;;;;;;0.65;100.00;97356.91;4979037;28;20041;-64
2022/12/14 05:50:52;;;;;;;22.35;14.52;;;;;;;0.77;99.81;97361.13;4969625;28;20558;-64
2022/12/14 05:53:17;;;;;;;23.33;14.23;;;;;;;0.81;99.31;97372.75;4998442;28;20863;-65
2022/12/14 05:55:50;;;;;;;24.45;14.07;;;;;;;0.74;99.35;97371.59;4996601;28;20481;-64
2022/12/14 05:58:16;;;;;;;23.65;14.90;;;;;;;0.44;100.00;97347.34;4972451;28;20061;-67
2022/12/14 06:00:42;;;;;;;25.65;15.40;;;;;;;0.46;100.00;97350.59;4986903;28;20484;-67
2022/12/14 06:03:08;;;;;;;24.80;15.43;;;;;;;0.36;100.00;97354.75;4982716;28;20026;-66
2022/12/14 06:05:33;;;;;;;28.35;15.75;;;;;;;0.53;100.00;97356.91;4982033;28;20571;-65
2022/12/14 06:07:58;;;;;;;23.73;15.65;;;;;;;0.63;100.00;97351.91;4967810;28;20095;-66
2022/12/14 06:10:24;;;;;;;25.52;15.52;;;;;;;0.55;100.00;97342.25;4982328;28;20132;-66
2022/12/14 06:12:50;;;;;;;25.13;14.65;;;;;;;0.58;100.00;97351.44;4995661;28;20486;-65
2022/12/14 06:15:15;;;;;;;26.48;14.63;;;;;;;0.50;100.00;97351.19;4994916;28;20038;-70
2022/12/14 06:17:45;;;;;;;26.90;16.77;;;;;;;0.35;100.00;97312.22;4993454;28;20038;-66
2022/12/14 06:20:12;;;;;;;26.40;15.57;;;;;;;0.61;100.00;97358.88;4966966;28;20038;-64
2022/12/14 06:22:37;;;;;;;24.52;15.70;;;;;;;0.61;100.00;97375.97;4998369;28;20050;-64
2022/12/14 06:25:03;;;;;;;28.88;16.75;;;;;;;0.40;100.00;97368.13;4997416;28;20045;-64
2022/12/14 06:27:29;;;;;;;25.52;16.10;;;;;;;0.47;100.00;97374.41;5010166;28;20034;-65
2022/12/14 06:29:54;;;;;;;25.02;16.05;;;;;;;0.43;100.00;97388.38;4993166;28;20382;-65
2022/12/14 06:32:20;;;;;;;26.80;16.30;;;;;;;0.48;100.00;97373.50;4978294;28;20095;-64
2022/12/14 06:34:46;;;;;;;25.40;16.15;;;;;;;0.56;100.00;97379.66;4978833;28;20877;-64
2022/12/14 06:37:12;;;;;;;28.25;16.08;;;;;;;0.57;100.00;97376.19;4977951;28;20092;-69
2022/12/14 06:39:37;;;;;;;29.48;16.20;;;;;;;0.68;99.38;97370.31;4967800;28;20066;-64
2022/12/14 06:42:04;;;;;;;23.63;15.07;;;;;;;0.75;98.83;97368.13;4965252;28;20080;-64
2022/12/14 06:44:29;;;;;;;25.52;16.23;;;;;;;0.81;98.71;97361.72;4977246;28;20646;-62
2022/12/14 06:46:55;;;;;;;27.50;15.45;;;;;;;0.83;98.49;97365.78;4992090;28;20030;-62
2022/12/14 06:49:21;;;;;;;25.75;16.17;;;;;;;0.72;99.03;97358.91;4977084;28;20038;-66
2022/12/14 06:51:48;;;;;;;26.10;15.70;;;;;;;0.67;99.51;97372.97;4997326;28;20046;-68
2022/12/14 06:54:15;;;;;;;28.35;16.75;;;;;;;0.61;99.65;97369.13;4984768;28;20687;-65
2022/12/14 06:56:43;;;;;;;26.33;16.02;;;;;;;0.71;98.89;97374.38;4995115;28;20043;-64
2022/12/14 06:59:09;;;;;;;31.20;16.77;;;;;;;0.54;99.50;97378.16;4989562;28;20557;-67
2022/12/14 07:01:36;;;;;;;29.83;16.55;;;;;;;0.58;99.69;97384.69;4976334;28;20019;-65
2022/12/14 07:04:01;;;;;;;26.48;16.50;;;;;;;0.68;99.74;97393.31;4961772;28;20044;-65
2022/12/14 07:06:32;;;;;;;25.33;15.75;;;;;;;0.79;98.48;97400.22;4966291;28;20034;-66
2022/12/14 07:08:58;;;;;;;25.38;16.50;;;;;;;0.75;98.37;97394.50;4993586;28;20061;-63
2022/12/14 07:11:25;;;;;;;25.42;15.93;;;;;;;0.66;99.02;97402.06;4963043;28;20224;-64
2022/12/14 07:13:52;;;;;;;27.52;16.25;;;;;;;0.68;98.91;97402.75;4964613;28;20039;-63
2022/12/14 07:16:24;;;;;;;26.17;16.30;;;;;;;0.81;98.74;97412.91;4985327;28;20509;-64
2022/12/14 07:18:50;;;;;;;24.10;15.40;;;;;;;0.69;98.94;97415.41;4980318;28;20027;-62
2022/12/14 07:21:17;;;;;;;27.98;16.63;;;;;;;0.64;98.06;97398.75;4967653;28;20070;-66
2022/12/14 07:23:45;;;;;;;26.60;16.27;;;;;;;0.67;98.51;97401.91;4985211;28;20113;-63
2022/12/14 07:26:22;;;;;;;24.70;16.23;;;;;;;0.56;98.41;97412.13;4983883;28;20034;-64
2022/12/14 07:28:49;;;;;;;25.83;15.82;;;;;;;0.30;99.96;97425.03;4985184;28;20140;-64
2022/12/14 07:31:21;;;;;;;28.80;16.67;;;;;;;0.29;100.00;97408.09;4981737;28;20026;-66
2022/12/14 07:33:47;;;;;;;24.85;15.30;;;;;;;0.42;100.00;97386.72;4982598;28;20080;-64
2022/12/14 07:36:15;;;;;;;23.95;14.52;;;;;;;0.55;100.00;97405.38;4988795;28;20030;-66
2022/12/14 07:38:43;;;;;;;24.15;14.88;;;;;;;0.57;100.00;97390.75;4967379;28;20121;-65
2022/12/14 07:41:11;;;;;;;26.40;15.55;;;;;;;0.75;99.92;97397.06;4968137;28;20380;-67
2022/12/14 07:43:41;;;;;;;26.70;15.50;;;;;;;0.80;100.00;97394.16;4984470;28;20038;-66
2022/12/14 07:46:12;;;;;;;26.02;15.05;;;;;;;0.76;99.59;97405.53;4986548;28;20081;-66
2022/12/14 07:48:38;;;;;;;26.25;16.67;;;;;;;0.77;98.44;97399.50;4969804;28;20544;-67
2022/12/14 07:51:06;;;;;;;26.95;16.00;;;;;;;0.81;97.89;97418.03;4968532;28;20034;-66
2022/12/14 07:53:31;;;;;;;23.58;16.77;;;;;;;0.91;97.90;97424.91;4967910;28;20034;-64
2022/12/14 07:56:11;;;;;;;28.13;15.85;;;;;;;0.83;99.40;97416.16;4984657;28;20117;-67
2022/12/14 07:58:37;;;;;;;27.50;16.02;;;;;;;0.87;98.83;97417.56;4998380;28;21749;-62
2022/12/14 08:01:27;;;;;;;25.63;16.13;;;;;;;0.92;98.35;97407.81;4984464;28;20030;-69
2022/12/14 08:03:58;;;;;;;28.65;17.73;;;;;;;0.67;98.51;97426.69;4978976;28;20057;-64
2022/12/14 08:06:26;;;;;;;29.85;18.75;;;;;;;0.84;98.64;97417.78;4974605;28;20572;-64
2022/12/14 08:08:53;;;;;;;32.17;18.90;;;;;;;0.94;98.32;97406.75;5004233;28;20031;-65
2022/12/14 08:11:21;;;;;;;27.67;17.60;;;;;;;0.96;97.30;97404.88;4975117;28;20034;-66
2022/12/14 08:13:51;;;;;;;29.42;18.35;;;;;;;1.10;97.23;97416.66;4965432;28;20042;-65
2022/12/14 08:16:17;;;;;;;26.80;16.75;;;;;;;1.14;97.19;97417.25;4973946;28;20060;-62
2022/12/14 08:18:43;;;;;;;29.55;17.10;;;;;;;1.19;96.69;97414.34;5002563;28;20061;-62
2022/12/14 08:21:10;;;;;;;25.73;16.05;;;;;;;1.17;97.27;97426.44;4966964;28;20034;-68
2022/12/14 08:23:36;;;;;;;27.05;16.15;;;;;;;0.80;97.71;97388.22;4973742;28;20117;-67
2022/12/14 08:26:04;;;;;;;24.73;14.93;;;;;;;1.04;97.59;97426.53;4970656;28;20026;-67
2022/12/14 08:28:30;;;;;;;27.02;17.05;;;;;;;1.04;97.57;97423.97;4969099;28;20084;-66
2022/12/14 08:30:57;;;;;;;27.98;15.32;;;;;;;1.18;97.37;97443.44;4980285;28;20104;-66
2022/12/14 08:33:23;;;;;;;24.50;15.32;;;;;;;1.12;96.79;97434.47;5002719;28;20049;-65
2022/12/14 08:35:49;;;;;;;23.88;15.10;;;;;;;1.27;97.08;97446.13;5000096;28;20040;-66
2022/12/14 08:38:14;;;;;;;24.73;14.68;;;;;;;1.30;96.70;97445.09;4972478;28;20053;-67
2022/12/14 08:40:41;;;;;;;23.27;14.00;;;;;;;1.38;95.76;97452.19;4968375;28;20126;-68
2022/12/14 08:43:08;;;;;;;24.60;15.80;;;;;;;1.40;94.45;97452.91;4971148;28;20054;-65
2022/12/14 08:45:34;;;;;;;22.60;14.70;;;;;;;1.44;93.85;97449.16;4971198;28;20049;-65
2022/12/14 08:48:00;;;;;;;23.70;14.90;;;;;;;1.46;94.42;97447.31;4994471;28;20030;-63
2022/12/14 08:50:28;;;;;;;20.73;14.45;;;;;;;1.54;94.86;97455.25;4969867;28;20125;-64
2022/12/14 08:52:53;;;;;;;22.98;15.07;;;;;;;1.50;94.27;97451.28;4971849;28;20832;-66
2022/12/14 08:55:20;;;;;;;23.48;15.18;;;;;;;1.52;94.07;97439.16;4955082;28;20044;-66
2022/12/14 08:57:46;;;;;;;24.50;15.40;;;;;;;1.68;94.00;97452.44;4970849;28;20022;-64
2022/12/14 09:00:13;;;;;;;23.92;14.68;;;;;;;1.70;93.28;97457.47;4958675;28;20026;-65
2022/12/14 09:02:38;;;;;;;28.10;15.02;;;;;;;1.71;94.67;97453.94;4950218;28;20022;-70
2022/12/14 09:05:04;;;;;;;21.20;13.90;;;;;;;1.82;94.53;97460.81;4975472;28;20041;-70
2022/12/14 09:07:31;;;;;;;24.35;14.52;;;;;;;1.77;94.48;97462.91;4959259;28;20403;-67
2022/12/14 09:09:57;;;;;;;25.38;15.43;;;;;;;1.81;94.51;97466.91;4959346;28;20566;-68
2022/12/14 09:12:22;;;;;;;23.40;15.25;;;;;;;1.56;94.53;97420.06;4967718;28;20026;-67
2022/12/14 09:14:48;;;;;;;24.90;15.13;;;;;;;1.96;95.25;97475.94;4991761;28;20054;-64
2022/12/14 09:17:17;;;;;;;26.52;15.95;;;;;;;2.02;95.03;97477.22;4992984;28;20061;-65
2022/12/14 09:19:44;;;;;;;30.65;15.25;;;;;;;1.95;95.15;97478.63;5007653;28;20834;-69
2022/12/14 09:22:10;;;;;;;23.63;15.50;;;;;;;1.88;95.35;97485.97;4976336;28;20034;-66
2022/12/14 09:24:36;;;;;;;26.17;15.57;;;;;;;1.87;95.66;97490.28;4973008;28;20787;-68
2022/12/14 09:27:02;;;;;;;25.35;15.52;;;;;;;1.98;95.31;97489.47;4977432;28;20030;-65
2022/12/14 09:29:28;;;;;;;24.48;16.42;;;;;;;2.02;95.70;97490.84;4981215;28;20224;-69
2022/12/14 09:31:55;;;;;;;25.60;16.50;;;;;;;1.96;95.32;97482.84;4974302;28;20555;-65
2022/12/14 09:34:22;;;;;;;22.40;15.23;;;;;;;1.87;95.30;97461.28;4966982;28;20088;-68
2022/12/14 09:36:48;;;;;;;22.83;16.00;;;;;;;2.01;95.44;97485.84;4950608;28;20037;-63
2022/12/14 09:39:14;;;;;;;24.52;15.85;;;;;;;2.04;96.09;97491.53;4965187;28;20035;-69
2022/12/14 09:41:55;;;;;;;24.67;15.10;;;;;;;2.21;95.81;97479.16;4967017;28;20034;-66
2022/12/14 09:44:34;;;;;;;22.58;14.52;;;;;;;2.34;94.47;97479.00;4990455;28;20041;-69
2022/12/14 09:47:20;;;;;;;20.38;14.07;;;;;;;2.28;93.79;97482.88;4967464;28;20531;-61
2022/12/14 09:50:04;;;;;;;22.75;15.25;;;;;;;2.41;91.63;97486.13;4968236;28;20033;-67
2022/12/14 09:52:36;;;;;;;23.80;15.40;;;;;;;2.30;93.45;97493.88;4958724;28;20121;-66
2022/12/14 09:55:05;;;;;;;23.80;15.82;;;;;;;2.40;93.18;97489.63;4975687;28;20049;-65
2022/12/14 09:57:35;;;;;;;;;;;;;;;2.45;91.95;97496.97;4959411;28;20030;-64
2022/12/14 10:00:01;;;;;;;;;;;;;;;2.38;92.04;97496.63;4965957;28;19917;-66
2022/12/14 10:02:34;;;;;;;20.30;13.30;;;;;;;2.43;91.27;97494.53;4965623;28;20011;-63
2022/12/14 10:05:18;;;;;;;21.85;14.25;;;;;;;2.42;91.35;97479.25;4975934;28;20057;-65
2022/12/14 10:08:09;;;;;;;22.75;13.90;;;;;;;2.44;91.95;97480.75;4975352;28;20452;-68
2022/12/14 10:11:05;;;;;;;21.45;13.73;;;;;;;2.55;92.65;97477.31;4975029;28;20023;-68
2022/12/14 10:14:15;;;;;;;21.65;14.40;;;;;;;2.50;93.76;97480.28;4967330;28;20508;-68
2022/12/14 10:16:48;;;;;;;21.63;14.65;;;;;;;2.66;92.82;97481.59;4979806;28;20053;-67
2022/12/14 10:19:17;;;;;;;22.55;14.35;;;;;;;2.54;93.44;97451.78;4966302;28;20481;-67
2022/12/14 10:21:45;;;;;;;23.67;13.60;;;;;;;2.68;92.55;97459.19;4967471;28;20687;-69
2022/12/14 10:24:17;;;;;;;19.33;12.27;;;;;;;2.58;91.45;97461.69;4976091;28;20393;-65
2022/12/14 10:26:50;;;;;;;18.95;12.18;;;;;;;2.51;92.44;97442.59;4958703;28;20041;-63
2022/12/14 10:29:40;;;;;;;19.15;12.27;;;;;;;2.55;90.73;97445.72;4965792;28;20065;-66
2022/12/14 10:32:18;;;;;;;18.92;12.07;;;;;;;2.43;92.35;97440.63;4959106;28;20516;-65
2022/12/14 10:34:44;;;;;;;18.63;12.45;;;;;;;2.50;91.85;97435.81;4974898;28;20129;-67
2022/12/14 10:37:32;;;;;;;19.45;12.18;;;;;;;2.60;92.33;97435.91;4965615;28;20034;-63
2022/12/14 10:40:08;;;;;;;22.83;13.05;;;;;;;2.71;91.87;97427.34;4958522;28;20137;-66
2022/12/14 10:42:47;;;;;;;19.00;13.40;;;;;;;2.76;91.24;97427.78;4973871;28;20034;-68
2022/12/14 10:45:21;;;;;;;21.10;12.75;;;;;;;2.47;89.03;97374.50;4990826;28;20038;-68
2022/12/14 10:47:51;;;;;;;20.50;13.10;;;;;;;2.84;90.23;97403.09;4988735;28;20149;-66
2022/12/14 10:50:49;;;;;;;17.23;11.90;;;;;;;2.87;89.15;97400.28;4990786;28;20108;-69
2022/12/14 10:53:21;;;;;;;17.40;11.80;;;;;;;2.84;89.08;97404.88;4957852;28;20070;-64
2022/12/14 10:55:47;;;;;;;16.13;11.50;;;;;;;2.88;89.21;97401.09;4966942;28;20323;-68
2022/12/14 10:58:12;;;;;;;20.70;12.70;;;;;;;2.68;89.20;97372.75;4949775;28;20391;-69
2022/12/14 11:00:38;;;;;;;18.95;12.00;;;;;;;2.84;89.77;97399.72;4974178;28;20048;-63
2022/12/14 11:03:14;;;;;;;21.15;13.48;;;;;;;2.85;91.33;97399.59;4978588;28;20035;-69
2022/12/14 11:05:50;;;;;;;18.52;12.60;;;;;;;2.87;90.40;97381.50;4968565;28;20041;-64
2022/12/14 11:08:43;;;;;;;19.40;12.07;;;;;;;2.85;90.26;97383.41;4995827;28;20098;-64
2022/12/14 11:11:16;;;;;;;18.45;12.38;;;;;;;2.89;90.73;97374.50;4982636;28;20529;-66
2022/12/14 11:13:49;;;;;;;17.30;11.38;;;;;;;2.94;89.53;97387.78;4988239;28;20030;-62
2022/12/14 11:16:24;;;;;;;19.80;13.05;;;;;;;2.96;89.48;97383.31;4972882;28;20556;-65
2022/12/14 11:18:59;;;;;;;19.65;12.30;;;;;;;2.87;90.75;97371.25;4972597;28;20030;-68
2022/12/14 11:21:33;;;;;;;20.50;11.73;;;;;;;3.01;89.92;97367.50;4978667;28;20038;-65
2022/12/14 11:23:59;;;;;;;21.02;12.07;;;;;;;2.95;89.16;97361.13;4976342;28;20030;-67
2022/12/14 11:26:36;;;;;;;15.10;10.15;;;;;;;2.93;88.52;97344.25;4970271;28;20535;-65
2022/12/14 11:29:04;;;;;;;19.27;11.52;;;;;;;2.97;87.20;97343.84;4960015;28;20074;-64
2022/12/14 11:31:34;;;;;;;16.75;11.48;;;;;;;2.68;87.92;97294.91;4963754;28;20429;-66
2022/12/14 11:34:02;;;;;;;21.42;11.18;;;;;;;3.05;88.63;97340.66;4986926;28;20030;-64
2022/12/14 11:36:37;;;;;;;17.27;10.20;;;;;;;2.77;86.00;97270.25;4977459;28;20038;-64
2022/12/14 11:39:06;;;;;;;15.25;9.35;;;;;;;2.80;83.03;97275.13;4978103;28;20029;-67
2022/12/14 11:41:37;;;;;;;17.02;10.23;;;;;;;3.06;83.99;97299.41;4979853;28;20030;-64
2022/12/14 11:44:14;;;;;;;15.85;10.15;;;;;;;3.14;82.84;97310.81;4973050;28;20388;-66
2022/12/14 11:46:53;;;;;;;14.10;9.90;;;;;;;3.17;84.72;97321.63;4987820;28;20123;-66
2022/12/14 11:49:32;;;;;;;17.55;10.98;;;;;;;3.14;83.61;97308.22;5000317;28;20100;-63
2022/12/14 11:51:59;;;;;;;;;;;;;;;3.20;83.87;97316.25;4995024;28;20458;-65
2022/12/14 11:54:25;;;;;;;14.88;9.18;;;;;;;3.20;84.13;97310.31;4976001;28;20688;-67
2022/12/14 11:56:56;;;;;;;16.73;9.43;;;;;;;3.23;83.58;97313.41;4972478;28;20030;-65
2022/12/14 11:59:24;;;;;;;16.08;10.70;;;;;;;3.22;83.20;97316.91;4977742;28;20815;-65